createdAt,value
2022-09-01T00:01:18.525Z,76.98
2022-09-01T00:06:23.624Z,76.97
2022-09-01T00:11:28.642Z,77.04
2022-09-01T00:16:32.207Z,77.10
2022-09-01T00:21:40.548Z,77.39
2022-09-01T00:26:44.819Z,77.08
2022-09-01T00:31:48.936Z,76.87
2022-09-01T00:36:52.983Z,77.03
2022-09-01T00:41:56.901Z,77.37
2022-09-01T00:47:00.691Z,77.23
2022-09-01T00:52:15.739Z,76.92
2022-09-01T00:57:19.698Z,77.10
2022-09-01T01:02:23.273Z,77.48
2022-09-01T01:07:28.799Z,77.18
2022-09-01T01:12:32.096Z,76.90
2022-09-01T01:17:36.878Z,76.85
2022-09-01T01:22:57.672Z,76.94
2022-09-01T01:28:29.646Z,77.06
2022-09-01T01:33:46.082Z,77.12
2022-09-01T01:38:50.551Z,77.46
2022-09-01T01:43:55.267Z,77.54
2022-09-01T01:48:59.841Z,77.75
2022-09-01T01:54:03.726Z,77.58
2022-09-01T01:59:09.634Z,77.56
2022-09-01T02:04:13.865Z,78.04
2022-09-01T02:09:22.067Z,77.99
2022-09-01T02:14:28.639Z,77.86
2022-09-01T02:19:35.059Z,77.65
2022-09-01T02:24:39.370Z,77.67
2022-09-01T02:29:43.572Z,77.70
2022-09-01T02:34:52.731Z,77.73
2022-09-01T02:40:00.164Z,77.54
2022-09-01T02:45:12.185Z,77.54
2022-09-01T02:50:16.134Z,77.65
2022-09-01T02:55:21.572Z,77.40
2022-09-01T03:00:25.526Z,77.68
2022-09-01T03:05:31.676Z,77.55
2022-09-01T03:10:38.492Z,77.89
2022-09-01T03:15:42.680Z,77.72
2022-09-01T03:20:47.836Z,77.59
2022-09-01T03:25:52.525Z,77.87
2022-09-01T03:30:58.048Z,78.05
2022-09-01T03:36:01.978Z,77.70
2022-09-01T03:41:06.175Z,77.92
2022-09-01T03:46:10.170Z,77.53
2022-09-01T03:51:14.154Z,77.79
2022-09-01T03:56:17.809Z,77.37
2022-09-01T04:01:24.820Z,77.07
2022-09-01T04:06:34.081Z,77.13
2022-09-01T04:11:42.461Z,77.13
2022-09-01T04:16:49.328Z,76.97
2022-09-01T04:21:55.970Z,76.63
2022-09-01T04:27:02.687Z,76.20
2022-09-01T04:32:08.866Z,76.24
2022-09-01T04:37:21.771Z,75.60
2022-09-01T04:42:38.049Z,75.55
2022-09-01T04:47:42.449Z,75.10
2022-09-01T04:52:50.951Z,74.85
2022-09-01T04:58:10.080Z,74.74
2022-09-01T05:03:14.390Z,74.56
2022-09-01T05:08:37.814Z,74.29
2022-09-01T05:13:48.613Z,73.94
2022-09-01T05:18:53.694Z,72.59
2022-09-01T05:24:01.258Z,72.50
2022-09-01T05:29:06.089Z,72.41
2022-09-01T05:34:10.737Z,72.57
2022-09-01T05:39:17.426Z,72.69
2022-09-01T05:44:22.783Z,72.34
2022-09-01T05:49:28.077Z,71.85
2022-09-01T05:54:34.576Z,71.51
2022-09-01T05:59:40.323Z,71.25
2022-09-01T06:04:50.818Z,70.33
2022-09-01T06:10:02.090Z,69.64
2022-09-01T06:15:07.175Z,69.22
2022-09-01T06:20:11.168Z,69.11
2022-09-01T06:25:19.686Z,67.95
2022-09-01T06:30:27.057Z,67.23
2022-09-01T06:35:45.353Z,66.93
2022-09-01T06:40:51.038Z,67.28
2022-09-01T06:46:02.341Z,66.84
2022-09-01T06:51:22.176Z,66.57
2022-09-01T06:56:33.888Z,66.20
2022-09-01T07:01:46.749Z,66.05
2022-09-01T07:07:01.532Z,66.15
2022-09-01T07:12:35.060Z,65.71
2022-09-01T07:17:38.989Z,65.90
2022-09-01T07:28:06.804Z,65.00
2022-09-01T07:39:48.758Z,65.11
2022-09-01T07:44:10.545Z,64.60
2022-09-01T07:50:24.106Z,64.50
2022-09-01T07:55:17.633Z,63.62
2022-09-01T08:00:21.651Z,63.88
2022-09-01T08:05:31.628Z,63.24
2022-09-01T08:10:42.685Z,62.42
2022-09-01T08:21:14.219Z,61.62
2022-09-01T08:26:37.741Z,61.03
2022-09-01T08:31:42.316Z,60.40
2022-09-01T08:36:46.439Z,60.16
2022-09-01T08:42:09.587Z,60.08
2022-09-01T08:47:39.303Z,60.01
2022-09-01T08:52:57.523Z,59.63
2022-09-01T08:58:02.197Z,59.63
2022-09-01T09:03:40.763Z,59.87
2022-09-01T09:09:01.279Z,60.15
2022-09-01T09:14:31.713Z,60.31
2022-09-01T09:19:41.737Z,59.83
2022-09-01T09:24:53.453Z,60.32
2022-09-01T09:30:03.007Z,59.60
2022-09-01T09:35:31.649Z,60.29
2022-09-01T09:40:53.267Z,59.72
2022-09-01T09:46:28.223Z,59.79
2022-09-01T09:51:31.807Z,59.54
2022-09-01T09:56:36.068Z,59.63
2022-09-01T10:01:39.797Z,59.57
2022-09-01T10:06:45.557Z,59.96
2022-09-01T10:11:55.514Z,59.74
2022-09-01T10:17:13.815Z,59.94
2022-09-01T10:22:20.659Z,59.67
2022-09-01T10:27:27.440Z,60.32
2022-09-01T10:32:55.342Z,59.92
2022-09-01T10:38:01.477Z,60.53
2022-09-01T10:43:26.367Z,61.04
2022-09-01T10:48:45.471Z,60.88
2022-09-01T10:53:54.364Z,60.77
2022-09-01T11:05:04.298Z,61.05
2022-09-01T11:10:35.574Z,60.52
2022-09-01T11:15:50.129Z,61.02
2022-09-01T11:20:57.910Z,61.04
2022-09-01T11:26:48.322Z,61.36
2022-09-01T11:31:52.431Z,61.92
2022-09-01T11:36:59.372Z,61.99
2022-09-01T11:42:10.749Z,61.85
2022-09-01T11:47:32.654Z,61.78
2022-09-01T11:52:38.923Z,61.83
2022-09-01T11:57:45.395Z,61.80
2022-09-01T12:02:54.458Z,61.78
2022-09-01T12:08:03.118Z,62.28
2022-09-01T12:13:12.084Z,62.21
2022-09-01T12:18:26.465Z,62.39
2022-09-01T12:23:34.355Z,62.25
2022-09-01T12:28:42.775Z,62.60
2022-09-01T12:33:47.991Z,62.33
2022-09-01T12:38:53.638Z,62.34
2022-09-01T12:44:30.596Z,61.92
2022-09-01T12:49:48.001Z,62.01
2022-09-01T12:54:59.869Z,61.87
2022-09-01T13:00:12.848Z,61.86
2022-09-01T13:05:29.962Z,61.53
2022-09-01T13:10:47.556Z,62.04
2022-09-01T13:15:57.056Z,62.33
2022-09-01T13:21:01.479Z,62.83
2022-09-01T13:26:05.017Z,62.67
2022-09-01T13:36:51.745Z,62.78
2022-09-01T13:41:56.186Z,62.64
2022-09-01T13:53:03.179Z,63.30
2022-09-01T13:58:10.198Z,63.02
2022-09-01T14:03:23.197Z,63.32
2022-09-01T14:08:29.137Z,63.72
2022-09-01T14:13:39.465Z,63.99
2022-09-01T14:18:43.391Z,64.02
2022-09-01T14:23:47.441Z,64.42
2022-09-01T14:28:51.249Z,64.56
2022-09-01T14:34:02.200Z,64.55
2022-09-01T14:39:06.379Z,65.08
2022-09-01T14:44:10.647Z,65.29
2022-09-01T14:49:14.156Z,65.35
2022-09-01T14:54:18.647Z,65.73
2022-09-01T14:59:34.540Z,65.63
2022-09-01T15:04:39.254Z,66.24
2022-09-01T15:09:43.251Z,66.45
2022-09-01T15:14:46.676Z,66.73
2022-09-01T15:19:50.196Z,66.69
2022-09-01T15:24:53.451Z,67.01
2022-09-01T15:29:58.255Z,67.04
2022-09-01T15:35:01.625Z,67.30
2022-09-01T15:40:07.752Z,67.58
2022-09-01T15:45:24.476Z,67.76
2022-09-01T15:50:29.197Z,68.05
2022-09-01T15:55:42.378Z,67.89
2022-09-01T16:00:46.339Z,68.13
2022-09-01T16:05:49.775Z,68.51
2022-09-01T16:10:57.244Z,68.87
2022-09-01T16:16:12.965Z,69.18
2022-09-01T16:21:31.987Z,69.36
2022-09-01T16:26:43.399Z,69.45
2022-09-01T16:31:56.489Z,69.40
2022-09-01T16:37:29.831Z,69.59
2022-09-01T16:42:48.020Z,69.98
2022-09-01T16:48:00.907Z,70.16
2022-09-01T16:53:25.673Z,70.36
2022-09-01T16:58:47.521Z,70.30
2022-09-01T17:04:00.072Z,70.32
2022-09-01T17:09:18.368Z,70.69
2022-09-01T17:14:43.136Z,70.92
2022-09-01T17:19:47.336Z,70.79
2022-09-01T17:30:08.244Z,71.22
2022-09-01T17:35:33.302Z,71.06
2022-09-01T17:41:04.298Z,71.19
2022-09-01T17:46:46.310Z,71.19
2022-09-01T17:52:02.345Z,71.77
2022-09-01T17:57:20.331Z,71.92
2022-09-01T18:02:27.434Z,71.71
2022-09-01T18:07:51.914Z,72.03
2022-09-01T18:13:06.934Z,72.28
2022-09-01T18:18:20.810Z,72.14
2022-09-01T18:23:28.149Z,72.32
2022-09-01T18:28:34.483Z,72.70
2022-09-01T18:33:53.256Z,72.79
2022-09-01T18:39:14.647Z,72.74
2022-09-01T18:44:36.011Z,72.90
2022-09-01T18:49:48.588Z,73.05
2022-09-01T18:55:18.507Z,73.24
2022-09-01T19:00:30.589Z,73.57
2022-09-01T19:05:54.332Z,73.41
2022-09-01T19:11:18.820Z,73.97
2022-09-01T19:16:48.128Z,73.87
2022-09-01T19:21:57.870Z,74.19
2022-09-01T19:27:38.750Z,74.25
2022-09-01T19:32:46.397Z,74.37
2022-09-01T19:37:51.275Z,74.54
2022-09-01T19:43:06.435Z,74.42
2022-09-01T19:48:13.304Z,74.71
2022-09-01T19:53:43.048Z,74.54
2022-09-01T19:58:56.928Z,74.79
2022-09-01T20:04:10.963Z,74.88
2022-09-01T20:09:21.862Z,75.10
2022-09-01T20:14:44.092Z,74.95
2022-09-01T20:20:08.902Z,75.26
2022-09-01T20:25:16.495Z,75.20
2022-09-01T20:30:28.990Z,75.14
2022-09-01T20:35:44.676Z,75.62
2022-09-01T20:40:48.544Z,75.76
2022-09-01T20:45:53.449Z,75.61
2022-09-01T20:51:14.444Z,75.53
2022-09-01T20:56:29.427Z,75.69
2022-09-01T21:01:48.926Z,75.46
2022-09-01T21:07:09.743Z,75.68
2022-09-01T21:12:27.994Z,75.84
2022-09-01T21:17:49.915Z,75.89
2022-09-01T21:22:55.462Z,76.02
2022-09-01T21:28:02.477Z,76.33
2022-09-01T21:33:05.942Z,76.43
2022-09-01T21:38:09.426Z,75.99
2022-09-01T21:43:26.037Z,76.11
2022-09-01T21:48:30.823Z,76.29
2022-09-01T21:53:34.282Z,76.34
2022-09-01T21:58:38.877Z,76.24
2022-09-01T22:03:42.708Z,76.18
2022-09-01T22:08:46.402Z,76.61
2022-09-01T22:13:50.565Z,76.76
2022-09-01T22:18:54.135Z,76.88
2022-09-01T22:23:58.203Z,76.81
2022-09-01T22:29:04.770Z,77.13
2022-09-01T22:34:13.953Z,76.33
2022-09-01T22:39:19.233Z,76.68
2022-09-01T22:44:26.492Z,76.54
2022-09-01T22:49:29.946Z,76.74
2022-09-01T22:54:33.418Z,77.16
2022-09-01T22:59:36.714Z,77.03
2022-09-01T23:04:42.874Z,76.96
2022-09-01T23:09:46.274Z,77.15
2022-09-01T23:14:49.810Z,77.19
2022-09-01T23:19:53.246Z,77.63
2022-09-01T23:24:58.552Z,77.46
2022-09-01T23:30:05.382Z,77.56
2022-09-01T23:35:09.456Z,77.64
2022-09-01T23:40:22.298Z,77.46
2022-09-01T23:45:27.575Z,77.67
2022-09-01T23:50:49.540Z,77.60
2022-09-01T23:56:01.550Z,77.80
